sensor_id;sensor_type;location;lat;lon;timestamp;P1;durP1;ratioP1;P2;durP2;ratioP2
70148;SDS011;57514;52.164;5.282;2024-03-22T00:01:54;38.95;;;18.08;;
70148;SDS011;57514;52.164;5.282;2024-03-22T00:04:20;38.03;;;15.45;;
70148;SDS011;57514;52.164;5.282;2024-03-22T00:06:47;38.00;;;17.35;;
70148;SDS011;57514;52.164;5.282;2024-03-22T00:09:14;30.58;;;14.80;;
70148;SDS011;57514;52.164;5.282;2024-03-22T00:11:40;41.88;;;18.52;;
70148;SDS011;57514;52.164;5.282;2024-03-22T00:14:07;34.55;;;15.57;;
70148;SDS011;57514;52.164;5.282;2024-03-22T00:16:34;37.05;;;18.02;;
70148;SDS011;57514;52.164;5.282;2024-03-22T00:19:00;37.20;;;17.27;;
70148;SDS011;57514;52.164;5.282;2024-03-22T00:21:26;38.00;;;18.98;;
70148;SDS011;57514;52.164;5.282;2024-03-22T00:23:53;32.42;;;15.88;;
70148;SDS011;57514;52.164;5.282;2024-03-22T00:26:19;26.83;;;11.45;;
70148;SDS011;57514;52.164;5.282;2024-03-22T00:28:46;41.17;;;17.95;;
70148;SDS011;57514;52.164;5.282;2024-03-22T00:31:12;33.90;;;13.93;;
70148;SDS011;57514;52.164;5.282;2024-03-22T00:33:39;33.22;;;15.75;;
70148;SDS011;57514;52.164;5.282;2024-03-22T00:36:05;28.15;;;12.75;;
70148;SDS011;57514;52.164;5.282;2024-03-22T00:38:31;33.42;;;14.80;;
70148;SDS011;57514;52.164;5.282;2024-03-22T00:40:58;30.45;;;14.00;;
70148;SDS011;57514;52.164;5.282;2024-03-22T00:43:24;37.53;;;17.05;;
70148;SDS011;57514;52.164;5.282;2024-03-22T00:45:50;38.08;;;16.58;;
70148;SDS011;57514;52.164;5.282;2024-03-22T00:48:16;31.15;;;14.95;;
70148;SDS011;57514;52.164;5.282;2024-03-22T00:50:43;32.40;;;15.50;;
70148;SDS011;57514;52.164;5.282;2024-03-22T00:53:09;34.63;;;17.20;;
70148;SDS011;57514;52.164;5.282;2024-03-22T00:55:37;34.85;;;15.80;;
70148;SDS011;57514;52.164;5.282;2024-03-22T00:58:03;38.20;;;16.73;;
70148;SDS011;57514;52.164;5.282;2024-03-22T01:00:29;38.40;;;16.42;;
70148;SDS011;57514;52.164;5.282;2024-03-22T01:02:56;35.78;;;16.73;;
70148;SDS011;57514;52.164;5.282;2024-03-22T01:05:22;34.47;;;16.27;;
70148;SDS011;57514;52.164;5.282;2024-03-22T01:07:48;34.75;;;15.48;;
70148;SDS011;57514;52.164;5.282;2024-03-22T01:10:14;36.58;;;16.13;;
70148;SDS011;57514;52.164;5.282;2024-03-22T01:12:41;23.50;;;10.13;;
70148;SDS011;57514;52.164;5.282;2024-03-22T01:15:07;39.80;;;17.13;;
70148;SDS011;57514;52.164;5.282;2024-03-22T01:17:34;38.33;;;18.33;;
70148;SDS011;57514;52.164;5.282;2024-03-22T01:20:01;41.08;;;17.73;;
70148;SDS011;57514;52.164;5.282;2024-03-22T01:22:28;38.55;;;17.95;;
70148;SDS011;57514;52.164;5.282;2024-03-22T01:24:54;41.17;;;17.75;;
70148;SDS011;57514;52.164;5.282;2024-03-22T01:27:20;35.33;;;16.63;;
70148;SDS011;57514;52.164;5.282;2024-03-22T01:29:47;37.40;;;16.20;;
70148;SDS011;57514;52.164;5.282;2024-03-22T01:32:13;37.65;;;17.10;;
70148;SDS011;57514;52.164;5.282;2024-03-22T01:34:39;37.80;;;17.33;;
70148;SDS011;57514;52.164;5.282;2024-03-22T01:37:06;39.55;;;18.63;;
70148;SDS011;57514;52.164;5.282;2024-03-22T01:39:32;33.42;;;16.33;;
70148;SDS011;57514;52.164;5.282;2024-03-22T01:41:58;37.97;;;17.90;;
70148;SDS011;57514;52.164;5.282;2024-03-22T01:44:28;38.55;;;16.13;;
70148;SDS011;57514;52.164;5.282;2024-03-22T01:46:54;37.45;;;16.75;;
70148;SDS011;57514;52.164;5.282;2024-03-22T01:49:21;41.22;;;18.63;;
70148;SDS011;57514;52.164;5.282;2024-03-22T01:51:47;33.55;;;17.13;;
70148;SDS011;57514;52.164;5.282;2024-03-22T01:54:14;34.20;;;14.90;;
70148;SDS011;57514;52.164;5.282;2024-03-22T01:56:42;38.97;;;17.05;;
70148;SDS011;57514;52.164;5.282;2024-03-22T01:59:08;40.25;;;18.83;;
70148;SDS011;57514;52.164;5.282;2024-03-22T02:01:35;36.65;;;16.15;;
70148;SDS011;57514;52.164;5.282;2024-03-22T02:04:01;33.55;;;14.50;;
70148;SDS011;57514;52.164;5.282;2024-03-22T02:06:27;40.03;;;17.10;;
70148;SDS011;57514;52.164;5.282;2024-03-22T02:08:54;38.90;;;17.40;;
70148;SDS011;57514;52.164;5.282;2024-03-22T02:11:20;41.78;;;18.17;;
70148;SDS011;57514;52.164;5.282;2024-03-22T02:13:47;35.50;;;17.27;;
70148;SDS011;57514;52.164;5.282;2024-03-22T02:16:13;37.30;;;18.52;;
70148;SDS011;57514;52.164;5.282;2024-03-22T02:18:39;33.15;;;16.45;;
70148;SDS011;57514;52.164;5.282;2024-03-22T02:21:05;39.50;;;21.15;;
70148;SDS011;57514;52.164;5.282;2024-03-22T02:23:32;43.88;;;19.67;;
70148;SDS011;57514;52.164;5.282;2024-03-22T02:25:59;50.95;;;21.92;;
70148;SDS011;57514;52.164;5.282;2024-03-22T02:28:25;47.45;;;20.58;;
70148;SDS011;57514;52.164;5.282;2024-03-22T02:30:52;48.67;;;21.38;;
70148;SDS011;57514;52.164;5.282;2024-03-22T02:33:18;55.33;;;22.85;;
70148;SDS011;57514;52.164;5.282;2024-03-22T02:35:47;51.95;;;23.10;;
70148;SDS011;57514;52.164;5.282;2024-03-22T02:38:14;47.70;;;22.70;;
70148;SDS011;57514;52.164;5.282;2024-03-22T02:40:40;48.30;;;21.80;;
70148;SDS011;57514;52.164;5.282;2024-03-22T02:43:06;41.72;;;18.38;;
70148;SDS011;57514;52.164;5.282;2024-03-22T02:45:33;44.92;;;20.27;;
70148;SDS011;57514;52.164;5.282;2024-03-22T02:47:59;54.60;;;19.13;;
70148;SDS011;57514;52.164;5.282;2024-03-22T02:50:25;54.53;;;22.15;;
70148;SDS011;57514;52.164;5.282;2024-03-22T02:52:52;47.78;;;20.45;;
70148;SDS011;57514;52.164;5.282;2024-03-22T02:55:18;57.97;;;25.27;;
70148;SDS011;57514;52.164;5.282;2024-03-22T02:57:44;31.73;;;12.95;;
70148;SDS011;57514;52.164;5.282;2024-03-22T03:00:11;54.95;;;24.45;;
70148;SDS011;57514;52.164;5.282;2024-03-22T03:02:37;47.78;;;19.45;;
70148;SDS011;57514;52.164;5.282;2024-03-22T03:05:04;43.88;;;20.13;;
70148;SDS011;57514;52.164;5.282;2024-03-22T03:07:31;45.08;;;19.33;;
70148;SDS011;57514;52.164;5.282;2024-03-22T03:09:57;44.35;;;19.27;;
70148;SDS011;57514;52.164;5.282;2024-03-22T03:12:23;47.95;;;19.55;;
70148;SDS011;57514;52.164;5.282;2024-03-22T03:14:50;49.08;;;21.27;;
70148;SDS011;57514;52.164;5.282;2024-03-22T03:17:16;49.88;;;20.27;;
70148;SDS011;57514;52.164;5.282;2024-03-22T03:19:42;30.23;;;13.35;;
70148;SDS011;57514;52.164;5.282;2024-03-22T03:22:08;38.35;;;16.02;;
70148;SDS011;57514;52.164;5.282;2024-03-22T03:24:34;34.50;;;15.00;;
70148;SDS011;57514;52.164;5.282;2024-03-22T03:27:01;35.35;;;14.90;;
70148;SDS011;57514;52.164;5.282;2024-03-22T03:29:27;35.28;;;16.45;;
70148;SDS011;57514;52.164;5.282;2024-03-22T03:31:54;42.95;;;18.67;;
70148;SDS011;57514;52.164;5.282;2024-03-22T03:34:20;33.10;;;13.25;;
70148;SDS011;57514;52.164;5.282;2024-03-22T03:36:47;29.50;;;12.82;;
70148;SDS011;57514;52.164;5.282;2024-03-22T03:39:14;44.72;;;18.80;;
70148;SDS011;57514;52.164;5.282;2024-03-22T03:41:40;37.63;;;15.18;;
70148;SDS011;57514;52.164;5.282;2024-03-22T03:44:06;29.20;;;11.85;;
70148;SDS011;57514;52.164;5.282;2024-03-22T03:46:32;29.02;;;11.13;;
70148;SDS011;57514;52.164;5.282;2024-03-22T03:48:59;41.22;;;16.60;;
70148;SDS011;57514;52.164;5.282;2024-03-22T03:51:25;33.40;;;14.75;;
70148;SDS011;57514;52.164;5.282;2024-03-22T03:53:51;36.65;;;16.58;;
70148;SDS011;57514;52.164;5.282;2024-03-22T03:56:17;36.03;;;15.25;;
70148;SDS011;57514;52.164;5.282;2024-03-22T03:58:45;35.67;;;14.82;;
70148;SDS011;57514;52.164;5.282;2024-03-22T04:01:11;37.38;;;14.35;;
70148;SDS011;57514;52.164;5.282;2024-03-22T04:03:38;31.73;;;13.13;;
70148;SDS011;57514;52.164;5.282;2024-03-22T04:06:04;35.20;;;15.07;;
70148;SDS011;57514;52.164;5.282;2024-03-22T04:08:30;29.17;;;11.55;;
70148;SDS011;57514;52.164;5.282;2024-03-22T04:10:57;32.50;;;14.05;;
70148;SDS011;57514;52.164;5.282;2024-03-22T04:13:24;33.25;;;13.32;;
70148;SDS011;57514;52.164;5.282;2024-03-22T04:15:51;28.23;;;11.05;;
70148;SDS011;57514;52.164;5.282;2024-03-22T04:18:17;29.83;;;13.07;;
70148;SDS011;57514;52.164;5.282;2024-03-22T04:20:52;38.15;;;14.43;;
70148;SDS011;57514;52.164;5.282;2024-03-22T04:23:20;32.25;;;12.00;;
70148;SDS011;57514;52.164;5.282;2024-03-22T04:25:56;32.55;;;11.30;;
70148;SDS011;57514;52.164;5.282;2024-03-22T04:28:24;35.95;;;13.88;;
70148;SDS011;57514;52.164;5.282;2024-03-22T04:31:09;36.75;;;14.82;;
70148;SDS011;57514;52.164;5.282;2024-03-22T04:33:35;26.52;;;9.80;;
70148;SDS011;57514;52.164;5.282;2024-03-22T04:36:02;38.75;;;14.95;;
70148;SDS011;57514;52.164;5.282;2024-03-22T04:38:29;28.48;;;11.48;;
70148;SDS011;57514;52.164;5.282;2024-03-22T04:40:56;36.55;;;13.93;;
70148;SDS011;57514;52.164;5.282;2024-03-22T04:43:23;33.85;;;13.27;;
70148;SDS011;57514;52.164;5.282;2024-03-22T04:45:49;27.00;;;11.57;;
70148;SDS011;57514;52.164;5.282;2024-03-22T04:48:19;27.90;;;11.27;;
70148;SDS011;57514;52.164;5.282;2024-03-22T04:50:46;35.03;;;11.63;;
70148;SDS011;57514;52.164;5.282;2024-03-22T04:53:15;33.30;;;12.75;;
70148;SDS011;57514;52.164;5.282;2024-03-22T04:55:42;34.38;;;12.48;;
70148;SDS011;57514;52.164;5.282;2024-03-22T04:58:13;27.25;;;10.95;;
70148;SDS011;57514;52.164;5.282;2024-03-22T05:00:40;35.63;;;13.77;;
70148;SDS011;57514;52.164;5.282;2024-03-22T05:03:08;38.47;;;13.52;;
70148;SDS011;57514;52.164;5.282;2024-03-22T05:05:34;29.05;;;13.07;;
70148;SDS011;57514;52.164;5.282;2024-03-22T05:08:01;21.80;;;9.18;;
70148;SDS011;57514;52.164;5.282;2024-03-22T05:10:27;25.35;;;10.32;;
70148;SDS011;57514;52.164;5.282;2024-03-22T05:12:54;31.05;;;12.40;;
70148;SDS011;57514;52.164;5.282;2024-03-22T05:15:20;37.22;;;15.60;;
70148;SDS011;57514;52.164;5.282;2024-03-22T05:17:47;33.80;;;14.15;;
70148;SDS011;57514;52.164;5.282;2024-03-22T05:20:13;32.05;;;12.82;;
70148;SDS011;57514;52.164;5.282;2024-03-22T05:22:39;25.10;;;9.90;;
70148;SDS011;57514;52.164;5.282;2024-03-22T05:25:05;26.05;;;10.82;;
70148;SDS011;57514;52.164;5.282;2024-03-22T05:27:33;38.03;;;15.75;;
70148;SDS011;57514;52.164;5.282;2024-03-22T05:29:59;31.00;;;13.07;;
70148;SDS011;57514;52.164;5.282;2024-03-22T05:32:25;29.30;;;11.27;;
70148;SDS011;57514;52.164;5.282;2024-03-22T05:34:52;27.33;;;11.95;;
70148;SDS011;57514;52.164;5.282;2024-03-22T05:37:18;35.05;;;14.55;;
70148;SDS011;57514;52.164;5.282;2024-03-22T05:39:45;31.10;;;12.95;;
70148;SDS011;57514;52.164;5.282;2024-03-22T05:42:11;43.03;;;15.00;;
70148;SDS011;57514;52.164;5.282;2024-03-22T05:44:37;39.65;;;13.80;;
70148;SDS011;57514;52.164;5.282;2024-03-22T05:47:04;37.05;;;15.32;;
70148;SDS011;57514;52.164;5.282;2024-03-22T05:49:30;40.55;;;17.17;;
70148;SDS011;57514;52.164;5.282;2024-03-22T05:51:56;37.88;;;15.27;;
70148;SDS011;57514;52.164;5.282;2024-03-22T05:54:22;40.22;;;16.20;;
70148;SDS011;57514;52.164;5.282;2024-03-22T05:56:49;36.88;;;14.63;;
70148;SDS011;57514;52.164;5.282;2024-03-22T05:59:15;37.92;;;16.65;;
70148;SDS011;57514;52.164;5.282;2024-03-22T06:01:41;39.25;;;17.15;;
70148;SDS011;57514;52.164;5.282;2024-03-22T06:04:07;36.40;;;15.27;;
70148;SDS011;57514;52.164;5.282;2024-03-22T06:06:34;35.60;;;14.18;;
70148;SDS011;57514;52.164;5.282;2024-03-22T06:09:01;32.78;;;13.27;;
70148;SDS011;57514;52.164;5.282;2024-03-22T06:11:36;29.75;;;13.25;;
70148;SDS011;57514;52.164;5.282;2024-03-22T06:14:02;29.90;;;13.43;;
70148;SDS011;57514;52.164;5.282;2024-03-22T06:16:29;35.58;;;15.32;;
70148;SDS011;57514;52.164;5.282;2024-03-22T06:18:55;41.72;;;14.45;;
70148;SDS011;57514;52.164;5.282;2024-03-22T06:21:21;39.88;;;14.88;;
70148;SDS011;57514;52.164;5.282;2024-03-22T06:23:50;26.23;;;11.45;;
70148;SDS011;57514;52.164;5.282;2024-03-22T06:26:16;29.00;;;11.30;;
70148;SDS011;57514;52.164;5.282;2024-03-22T06:28:43;34.47;;;15.18;;
70148;SDS011;57514;52.164;5.282;2024-03-22T06:31:09;33.35;;;15.82;;
70148;SDS011;57514;52.164;5.282;2024-03-22T06:33:35;35.58;;;14.75;;
70148;SDS011;57514;52.164;5.282;2024-03-22T06:36:01;34.25;;;15.00;;
70148;SDS011;57514;52.164;5.282;2024-03-22T06:38:31;33.17;;;14.70;;
70148;SDS011;57514;52.164;5.282;2024-03-22T06:40:57;40.25;;;17.30;;
70148;SDS011;57514;52.164;5.282;2024-03-22T06:43:24;30.83;;;14.02;;
70148;SDS011;57514;52.164;5.282;2024-03-22T06:45:51;36.80;;;15.68;;
70148;SDS011;57514;52.164;5.282;2024-03-22T06:48:17;40.28;;;15.98;;
70148;SDS011;57514;52.164;5.282;2024-03-22T06:50:43;33.70;;;14.38;;
70148;SDS011;57514;52.164;5.282;2024-03-22T06:53:11;29.33;;;12.85;;
70148;SDS011;57514;52.164;5.282;2024-03-22T06:55:37;31.83;;;13.43;;
70148;SDS011;57514;52.164;5.282;2024-03-22T06:58:04;33.03;;;13.20;;
70148;SDS011;57514;52.164;5.282;2024-03-22T07:00:30;30.50;;;13.15;;
70148;SDS011;57514;52.164;5.282;2024-03-22T07:03:00;28.13;;;12.45;;
70148;SDS011;57514;52.164;5.282;2024-03-22T07:05:28;26.15;;;10.88;;
70148;SDS011;57514;52.164;5.282;2024-03-22T07:07:54;22.42;;;8.45;;
70148;SDS011;57514;52.164;5.282;2024-03-22T07:10:23;24.35;;;9.40;;
70148;SDS011;57514;52.164;5.282;2024-03-22T07:12:54;22.38;;;9.30;;
70148;SDS011;57514;52.164;5.282;2024-03-22T07:15:21;21.88;;;8.95;;
70148;SDS011;57514;52.164;5.282;2024-03-22T07:17:47;21.48;;;8.15;;
70148;SDS011;57514;52.164;5.282;2024-03-22T07:20:14;22.70;;;9.55;;
70148;SDS011;57514;52.164;5.282;2024-03-22T07:22:40;17.75;;;7.00;;
70148;SDS011;57514;52.164;5.282;2024-03-22T07:25:07;26.58;;;9.95;;
70148;SDS011;57514;52.164;5.282;2024-03-22T07:27:36;25.95;;;10.38;;
70148;SDS011;57514;52.164;5.282;2024-03-22T07:30:03;22.42;;;9.35;;
70148;SDS011;57514;52.164;5.282;2024-03-22T07:32:30;30.00;;;10.77;;
70148;SDS011;57514;52.164;5.282;2024-03-22T07:34:57;24.55;;;9.32;;
70148;SDS011;57514;52.164;5.282;2024-03-22T07:37:24;22.88;;;9.70;;
70148;SDS011;57514;52.164;5.282;2024-03-22T07:39:50;24.77;;;9.93;;
70148;SDS011;57514;52.164;5.282;2024-03-22T07:42:17;23.08;;;8.48;;
70148;SDS011;57514;52.164;5.282;2024-03-22T07:44:43;23.50;;;8.98;;
70148;SDS011;57514;52.164;5.282;2024-03-22T07:47:10;25.00;;;9.05;;
70148;SDS011;57514;52.164;5.282;2024-03-22T07:49:36;22.02;;;8.35;;
70148;SDS011;57514;52.164;5.282;2024-03-22T07:52:03;17.88;;;7.38;;
70148;SDS011;57514;52.164;5.282;2024-03-22T07:54:30;13.93;;;5.22;;
70148;SDS011;57514;52.164;5.282;2024-03-22T07:56:57;23.88;;;9.57;;
70148;SDS011;57514;52.164;5.282;2024-03-22T07:59:23;22.40;;;8.63;;
70148;SDS011;57514;52.164;5.282;2024-03-22T08:01:50;25.88;;;9.25;;
70148;SDS011;57514;52.164;5.282;2024-03-22T08:04:17;24.88;;;8.00;;
70148;SDS011;57514;52.164;5.282;2024-03-22T08:06:43;20.50;;;7.93;;
70148;SDS011;57514;52.164;5.282;2024-03-22T08:09:09;23.27;;;8.48;;
70148;SDS011;57514;52.164;5.282;2024-03-22T08:11:35;23.42;;;8.60;;
70148;SDS011;57514;52.164;5.282;2024-03-22T08:14:02;18.98;;;7.45;;
70148;SDS011;57514;52.164;5.282;2024-03-22T08:16:29;21.30;;;7.75;;
70148;SDS011;57514;52.164;5.282;2024-03-22T08:18:55;25.77;;;8.50;;
70148;SDS011;57514;52.164;5.282;2024-03-22T08:21:22;23.75;;;8.75;;
70148;SDS011;57514;52.164;5.282;2024-03-22T08:23:50;22.02;;;9.13;;
70148;SDS011;57514;52.164;5.282;2024-03-22T08:26:17;21.42;;;8.00;;
70148;SDS011;57514;52.164;5.282;2024-03-22T08:28:44;24.70;;;8.65;;
70148;SDS011;57514;52.164;5.282;2024-03-22T08:31:11;21.25;;;8.05;;
70148;SDS011;57514;52.164;5.282;2024-03-22T08:33:37;20.38;;;6.68;;
70148;SDS011;57514;52.164;5.282;2024-03-22T08:36:04;20.58;;;6.72;;
70148;SDS011;57514;52.164;5.282;2024-03-22T08:38:30;21.73;;;8.98;;
70148;SDS011;57514;52.164;5.282;2024-03-22T08:40:56;23.60;;;8.25;;
70148;SDS011;57514;52.164;5.282;2024-03-22T08:43:22;25.40;;;8.57;;
70148;SDS011;57514;52.164;5.282;2024-03-22T08:45:51;18.42;;;7.85;;
70148;SDS011;57514;52.164;5.282;2024-03-22T08:48:17;18.30;;;6.95;;
70148;SDS011;57514;52.164;5.282;2024-03-22T08:50:44;22.65;;;9.00;;
70148;SDS011;57514;52.164;5.282;2024-03-22T08:53:10;22.17;;;7.97;;
70148;SDS011;57514;52.164;5.282;2024-03-22T08:55:36;24.23;;;8.23;;
70148;SDS011;57514;52.164;5.282;2024-03-22T08:58:03;18.00;;;7.35;;
70148;SDS011;57514;52.164;5.282;2024-03-22T09:00:29;21.35;;;7.65;;
70148;SDS011;57514;52.164;5.282;2024-03-22T09:02:56;22.38;;;8.07;;
70148;SDS011;57514;52.164;5.282;2024-03-22T09:05:22;19.45;;;7.25;;
70148;SDS011;57514;52.164;5.282;2024-03-22T09:07:49;21.70;;;8.05;;
70148;SDS011;57514;52.164;5.282;2024-03-22T09:10:18;18.00;;;7.03;;
70148;SDS011;57514;52.164;5.282;2024-03-22T09:12:44;13.45;;;5.40;;
70148;SDS011;57514;52.164;5.282;2024-03-22T09:15:10;15.82;;;7.10;;
70148;SDS011;57514;52.164;5.282;2024-03-22T09:17:37;17.35;;;6.95;;
70148;SDS011;57514;52.164;5.282;2024-03-22T09:20:04;18.25;;;7.57;;
70148;SDS011;57514;52.164;5.282;2024-03-22T09:22:30;18.45;;;7.50;;
70148;SDS011;57514;52.164;5.282;2024-03-22T09:24:57;18.75;;;7.13;;
70148;SDS011;57514;52.164;5.282;2024-03-22T09:27:24;21.10;;;7.75;;
70148;SDS011;57514;52.164;5.282;2024-03-22T09:29:50;18.88;;;6.55;;
70148;SDS011;57514;52.164;5.282;2024-03-22T09:32:18;15.18;;;7.18;;
70148;SDS011;57514;52.164;5.282;2024-03-22T09:34:44;18.17;;;6.93;;
70148;SDS011;57514;52.164;5.282;2024-03-22T09:37:10;18.63;;;7.60;;
70148;SDS011;57514;52.164;5.282;2024-03-22T09:39:36;18.23;;;7.03;;
70148;SDS011;57514;52.164;5.282;2024-03-22T09:42:04;16.48;;;6.47;;
70148;SDS011;57514;52.164;5.282;2024-03-22T09:44:32;15.52;;;6.40;;
70148;SDS011;57514;52.164;5.282;2024-03-22T09:46:59;13.45;;;6.25;;
70148;SDS011;57514;52.164;5.282;2024-03-22T09:49:25;18.75;;;6.65;;
70148;SDS011;57514;52.164;5.282;2024-03-22T09:51:52;14.50;;;7.43;;
70148;SDS011;57514;52.164;5.282;2024-03-22T09:54:18;18.27;;;7.28;;
70148;SDS011;57514;52.164;5.282;2024-03-22T09:56:45;12.85;;;5.95;;
70148;SDS011;57514;52.164;5.282;2024-03-22T09:59:13;17.38;;;7.50;;
70148;SDS011;57514;52.164;5.282;2024-03-22T10:01:39;17.25;;;7.13;;
70148;SDS011;57514;52.164;5.282;2024-03-22T10:04:06;13.32;;;5.57;;
70148;SDS011;57514;52.164;5.282;2024-03-22T10:06:35;13.75;;;6.00;;
70148;SDS011;57514;52.164;5.282;2024-03-22T10:09:01;15.68;;;6.53;;
70148;SDS011;57514;52.164;5.282;2024-03-22T10:11:28;14.48;;;4.57;;
70148;SDS011;57514;52.164;5.282;2024-03-22T10:13:56;14.35;;;4.90;;
70148;SDS011;57514;52.164;5.282;2024-03-22T10:16:22;13.80;;;6.18;;
70148;SDS011;57514;52.164;5.282;2024-03-22T10:18:48;14.00;;;5.90;;
70148;SDS011;57514;52.164;5.282;2024-03-22T10:21:18;15.95;;;5.95;;
70148;SDS011;57514;52.164;5.282;2024-03-22T10:23:44;12.75;;;5.38;;
70148;SDS011;57514;52.164;5.282;2024-03-22T10:26:12;13.85;;;5.60;;
70148;SDS011;57514;52.164;5.282;2024-03-22T10:28:45;11.73;;;5.20;;
70148;SDS011;57514;52.164;5.282;2024-03-22T10:31:12;12.35;;;5.57;;
70148;SDS011;57514;52.164;5.282;2024-03-22T10:33:38;12.10;;;5.15;;
70148;SDS011;57514;52.164;5.282;2024-03-22T10:36:06;10.73;;;5.22;;
70148;SDS011;57514;52.164;5.282;2024-03-22T10:38:32;12.98;;;5.55;;
70148;SDS011;57514;52.164;5.282;2024-03-22T10:40:59;12.40;;;5.40;;
70148;SDS011;57514;52.164;5.282;2024-03-22T10:43:27;13.27;;;4.95;;
70148;SDS011;57514;52.164;5.282;2024-03-22T10:45:54;11.27;;;4.57;;
70148;SDS011;57514;52.164;5.282;2024-03-22T10:48:22;9.63;;;4.20;;
70148;SDS011;57514;52.164;5.282;2024-03-22T10:50:50;11.70;;;5.40;;
70148;SDS011;57514;52.164;5.282;2024-03-22T10:53:20;10.52;;;4.85;;
70148;SDS011;57514;52.164;5.282;2024-03-22T10:55:49;10.95;;;4.95;;
70148;SDS011;57514;52.164;5.282;2024-03-22T10:58:17;11.25;;;4.88;;
70148;SDS011;57514;52.164;5.282;2024-03-22T11:00:43;10.95;;;4.70;;
70148;SDS011;57514;52.164;5.282;2024-03-22T11:03:10;10.98;;;4.38;;
70148;SDS011;57514;52.164;5.282;2024-03-22T11:05:46;14.63;;;5.13;;
70148;SDS011;57514;52.164;5.282;2024-03-22T11:08:13;10.68;;;4.65;;
70148;SDS011;57514;52.164;5.282;2024-03-22T11:10:39;12.00;;;4.93;;
70148;SDS011;57514;52.164;5.282;2024-03-22T11:13:06;11.02;;;4.88;;
70148;SDS011;57514;52.164;5.282;2024-03-22T11:15:34;10.23;;;3.88;;
70148;SDS011;57514;52.164;5.282;2024-03-22T11:18:00;10.70;;;4.85;;
70148;SDS011;57514;52.164;5.282;2024-03-22T11:20:27;10.85;;;4.07;;
70148;SDS011;57514;52.164;5.282;2024-03-22T11:22:58;12.90;;;3.60;;
70148;SDS011;57514;52.164;5.282;2024-03-22T11:25:24;11.10;;;4.30;;
70148;SDS011;57514;52.164;5.282;2024-03-22T11:27:51;9.75;;;3.85;;
70148;SDS011;57514;52.164;5.282;2024-03-22T11:30:19;8.90;;;3.72;;
70148;SDS011;57514;52.164;5.282;2024-03-22T11:32:47;8.77;;;3.83;;
70148;SDS011;57514;52.164;5.282;2024-03-22T11:35:13;9.10;;;3.63;;
70148;SDS011;57514;52.164;5.282;2024-03-22T11:37:40;8.73;;;3.75;;
70148;SDS011;57514;52.164;5.282;2024-03-22T11:40:10;8.75;;;3.35;;
70148;SDS011;57514;52.164;5.282;2024-03-22T11:45:03;7.10;;;3.20;;
70148;SDS011;57514;52.164;5.282;2024-03-22T11:47:30;6.72;;;3.10;;
70148;SDS011;57514;52.164;5.282;2024-03-22T11:49:56;6.63;;;2.75;;
70148;SDS011;57514;52.164;5.282;2024-03-22T11:52:25;8.18;;;3.20;;
70148;SDS011;57514;52.164;5.282;2024-03-22T11:54:52;8.35;;;3.38;;
70148;SDS011;57514;52.164;5.282;2024-03-22T11:57:18;8.35;;;3.30;;
70148;SDS011;57514;52.164;5.282;2024-03-22T11:59:45;6.93;;;2.90;;
70148;SDS011;57514;52.164;5.282;2024-03-22T12:02:11;7.88;;;3.17;;
70148;SDS011;57514;52.164;5.282;2024-03-22T12:04:45;7.00;;;3.22;;
70148;SDS011;57514;52.164;5.282;2024-03-22T12:07:16;7.75;;;2.85;;
70148;SDS011;57514;52.164;5.282;2024-03-22T12:09:43;9.75;;;3.53;;
70148;SDS011;57514;52.164;5.282;2024-03-22T12:12:10;8.93;;;3.25;;
70148;SDS011;57514;52.164;5.282;2024-03-22T12:14:38;9.93;;;3.63;;
70148;SDS011;57514;52.164;5.282;2024-03-22T12:17:04;9.05;;;4.15;;
70148;SDS011;57514;52.164;5.282;2024-03-22T12:19:31;10.57;;;4.03;;
70148;SDS011;57514;52.164;5.282;2024-03-22T12:21:57;12.00;;;4.72;;
70148;SDS011;57514;52.164;5.282;2024-03-22T12:24:24;10.70;;;4.10;;
70148;SDS011;57514;52.164;5.282;2024-03-22T12:26:50;10.55;;;4.10;;
70148;SDS011;57514;52.164;5.282;2024-03-22T12:29:16;12.25;;;4.70;;
70148;SDS011;57514;52.164;5.282;2024-03-22T12:31:43;12.45;;;4.40;;
70148;SDS011;57514;52.164;5.282;2024-03-22T12:34:10;10.57;;;4.65;;
70148;SDS011;57514;52.164;5.282;2024-03-22T12:36:36;13.60;;;5.22;;
70148;SDS011;57514;52.164;5.282;2024-03-22T12:39:03;12.68;;;4.65;;
70148;SDS011;57514;52.164;5.282;2024-03-22T12:41:29;12.70;;;4.68;;
70148;SDS011;57514;52.164;5.282;2024-03-22T12:43:56;11.40;;;4.60;;
70148;SDS011;57514;52.164;5.282;2024-03-22T12:46:23;12.25;;;5.38;;
70148;SDS011;57514;52.164;5.282;2024-03-22T12:48:49;11.38;;;4.78;;
70148;SDS011;57514;52.164;5.282;2024-03-22T12:51:16;11.02;;;4.50;;
70148;SDS011;57514;52.164;5.282;2024-03-22T12:53:42;11.68;;;4.68;;
70148;SDS011;57514;52.164;5.282;2024-03-22T12:56:09;12.35;;;5.00;;
70148;SDS011;57514;52.164;5.282;2024-03-22T12:58:36;9.23;;;3.45;;
70148;SDS011;57514;52.164;5.282;2024-03-22T13:01:04;12.05;;;5.22;;
70148;SDS011;57514;52.164;5.282;2024-03-22T13:03:31;10.65;;;4.85;;
70148;SDS011;57514;52.164;5.282;2024-03-22T13:05:58;13.25;;;4.47;;
70148;SDS011;57514;52.164;5.282;2024-03-22T13:08:24;12.38;;;4.57;;
70148;SDS011;57514;52.164;5.282;2024-03-22T13:10:50;12.98;;;5.35;;
70148;SDS011;57514;52.164;5.282;2024-03-22T13:13:17;11.95;;;4.55;;
70148;SDS011;57514;52.164;5.282;2024-03-22T13:15:44;11.77;;;5.18;;
70148;SDS011;57514;52.164;5.282;2024-03-22T13:18:12;13.10;;;5.10;;
70148;SDS011;57514;52.164;5.282;2024-03-22T13:20:38;12.15;;;4.93;;
70148;SDS011;57514;52.164;5.282;2024-03-22T13:23:05;11.13;;;4.40;;
70148;SDS011;57514;52.164;5.282;2024-03-22T13:25:34;11.35;;;4.13;;
70148;SDS011;57514;52.164;5.282;2024-03-22T13:28:04;13.98;;;4.80;;
70148;SDS011;57514;52.164;5.282;2024-03-22T13:30:33;11.50;;;4.40;;
70148;SDS011;57514;52.164;5.282;2024-03-22T13:33:00;11.75;;;4.50;;
70148;SDS011;57514;52.164;5.282;2024-03-22T13:35:27;12.15;;;4.88;;
70148;SDS011;57514;52.164;5.282;2024-03-22T13:37:53;14.05;;;5.00;;
70148;SDS011;57514;52.164;5.282;2024-03-22T13:40:20;12.13;;;4.78;;
70148;SDS011;57514;52.164;5.282;2024-03-22T13:42:46;12.80;;;5.55;;
70148;SDS011;57514;52.164;5.282;2024-03-22T13:45:13;11.38;;;5.15;;
70148;SDS011;57514;52.164;5.282;2024-03-22T13:47:39;12.05;;;5.15;;
70148;SDS011;57514;52.164;5.282;2024-03-22T13:50:06;13.98;;;5.30;;
70148;SDS011;57514;52.164;5.282;2024-03-22T13:52:34;13.45;;;5.32;;
70148;SDS011;57514;52.164;5.282;2024-03-22T13:55:01;15.25;;;5.40;;
70148;SDS011;57514;52.164;5.282;2024-03-22T13:57:27;11.65;;;4.85;;
70148;SDS011;57514;52.164;5.282;2024-03-22T13:59:53;14.57;;;6.13;;
70148;SDS011;57514;52.164;5.282;2024-03-22T14:02:19;16.08;;;6.00;;
70148;SDS011;57514;52.164;5.282;2024-03-22T14:04:45;14.00;;;6.22;;
70148;SDS011;57514;52.164;5.282;2024-03-22T14:07:12;14.70;;;5.80;;
70148;SDS011;57514;52.164;5.282;2024-03-22T14:09:38;14.00;;;5.70;;
70148;SDS011;57514;52.164;5.282;2024-03-22T14:12:05;14.85;;;5.47;;
70148;SDS011;57514;52.164;5.282;2024-03-22T14:14:32;13.30;;;5.28;;
70148;SDS011;57514;52.164;5.282;2024-03-22T14:16:58;12.25;;;5.47;;
70148;SDS011;57514;52.164;5.282;2024-03-22T14:19:24;15.25;;;5.28;;
70148;SDS011;57514;52.164;5.282;2024-03-22T14:21:50;13.73;;;4.97;;
70148;SDS011;57514;52.164;5.282;2024-03-22T14:24:17;12.45;;;4.68;;
70148;SDS011;57514;52.164;5.282;2024-03-22T14:26:43;13.23;;;4.80;;
70148;SDS011;57514;52.164;5.282;2024-03-22T14:29:09;11.60;;;4.75;;